Time;durP1;ratioP1;P1;durP2;ratioP2;P2;SDS_P1;SDS_P2;PMS_P1;PMS_P2;Temp;Humidity;BMP_temperature;BMP_pressure;BME280_temperature;BME280_humidity;BME280_pressure;Samples;Min_cycle;Max_cycle;Signal;HPM_P1;HPM_P2
2022/09/27 00:00:58;;;;;;;2.33;2.13;;;11.00;99.90;;;;;;5085908;27;20229;-45
2022/09/27 00:03:25;;;;;;;2.30;2.10;;;11.00;99.90;;;;;;5105597;28;20201;-46
2022/09/27 00:06:01;;;;;;;2.60;2.40;;;11.00;99.90;;;;;;5103051;28;20217;-45
2022/09/27 00:08:28;;;;;;;2.37;2.20;;;11.00;99.90;;;;;;5106305;28;20681;-47
2022/09/27 00:11:00;;;;;;;2.70;2.50;;;11.00;99.90;;;;;;5102738;27;20189;-47
2022/09/27 00:13:27;;;;;;;2.53;2.33;;;11.00;99.90;;;;;;5105337;28;20274;-44
2022/09/27 00:15:57;;;;;;;4.57;2.10;;;11.00;99.90;;;;;;5085417;27;20213;-43
2022/09/27 00:18:23;;;;;;;2.80;2.60;;;11.00;99.90;;;;;;5106035;28;20197;-45
2022/09/27 00:20:50;;;;;;;2.83;2.50;;;11.00;99.90;;;;;;5122976;27;20207;-45
2022/09/27 00:23:16;;;;;;;3.53;2.53;;;11.00;99.90;;;;;;5124328;27;20192;-43
2022/09/27 00:25:43;;;;;;;2.50;2.30;;;11.00;99.90;;;;;;5125095;27;20200;-44
2022/09/27 00:28:12;;;;;;;2.67;2.43;;;11.00;99.90;;;;;;5124514;27;20181;-45
2022/09/27 00:30:41;;;;;;;2.70;2.50;;;11.00;99.90;;;;;;5099821;27;20210;-45
2022/09/27 00:33:08;;;;;;;2.43;2.23;;;11.00;99.90;;;;;;5100606;28;20201;-42
2022/09/27 00:35:34;;;;;;;2.70;2.33;;;11.00;99.90;;;;;;5103985;28;20693;-44
2022/09/27 00:38:01;;;;;;;2.60;2.40;;;11.00;99.90;;;;;;5101324;28;20178;-48
2022/09/27 00:40:28;;;;;;;2.60;2.40;;;11.00;99.90;;;;;;5106300;28;20197;-43
2022/09/27 00:42:55;;;;;;;3.27;2.77;;;11.00;99.90;;;;;;5100578;28;20292;-43
2022/09/27 00:45:23;;;;;;;2.60;2.40;;;11.00;99.90;;;;;;5104840;28;20193;-42
2022/09/27 00:47:54;;;;;;;2.53;2.33;;;11.00;99.90;;;;;;5091017;27;20221;-44
2022/09/27 00:50:25;;;;;;;2.70;2.50;;;11.00;99.90;;;;;;5103884;28;20248;-47
2022/09/27 00:52:59;;;;;;;3.40;2.70;;;11.00;99.90;;;;;;5100717;28;20197;-45
2022/09/27 00:55:30;;;;;;;3.30;2.60;;;11.00;99.90;;;;;;5103215;28;20197;-45
2022/09/27 00:57:57;;;;;;;3.23;2.80;;;11.00;99.90;;;;;;5101524;28;20205;-47
2022/09/27 01:00:25;;;;;;;2.80;2.60;;;11.00;99.90;;;;;;5103999;28;20193;-45
2022/09/27 01:02:54;;;;;;;2.47;2.27;;;11.00;99.90;;;;;;5088169;27;20212;-44
2022/09/27 01:05:25;;;;;;;3.00;2.80;;;11.00;99.90;;;;;;5102782;27;20193;-44
2022/09/27 01:07:55;;;;;;;3.23;2.93;;;11.00;99.90;;;;;;5102015;28;20213;-43
2022/09/27 01:10:24;;;;;;;3.93;3.13;;;11.00;99.90;;;;;;5103905;28;20193;-43
2022/09/27 01:13:00;;;;;;;2.87;2.57;;;11.00;99.90;;;;;;5100794;28;20680;-43
2022/09/27 01:15:39;;;;;;;3.73;2.63;;;11.00;99.90;;;;;;5102692;28;20207;-45
2022/09/27 01:18:20;;;;;;;2.93;2.73;;;11.00;99.90;;;;;;5077469;27;20224;-45
2022/09/27 01:21:07;;;;;;;3.17;2.83;;;11.00;99.90;;;;;;5111225;27;20196;-47
2022/09/27 01:23:53;;;;;;;4.43;3.17;;;11.00;99.90;;;;;;5122048;27;20556;-44
2022/09/27 01:26:35;;;;;;;2.70;2.50;;;11.00;99.90;;;;;;5123365;27;20705;-44
2022/09/27 01:29:09;;;;;;;2.80;2.60;;;11.00;99.90;;;;;;5119969;27;20264;-45
2022/09/27 01:31:45;;;;;;;2.70;2.50;;;11.00;99.90;;;;;;5124124;27;20253;-47
2022/09/27 01:34:22;;;;;;;3.60;2.80;;;11.00;99.90;;;;;;5095264;27;21050;-45
2022/09/27 01:36:54;;;;;;;3.13;2.80;;;11.00;99.90;;;;;;5100320;28;20669;-43
2022/09/27 01:39:34;;;;;;;2.87;2.67;;;11.00;99.90;;;;;;5104831;28;20558;-47
2022/09/27 01:42:37;;;;;;;3.03;2.73;;;11.00;99.90;;;;;;5066263;28;20206;-42
2022/09/27 01:45:12;;;;;;;3.27;2.97;;;11.00;99.90;;;;;;5097941;28;20789;-42
2022/09/27 01:47:53;;;;;;;3.37;3.07;;;10.90;99.90;;;;;;5108987;27;20220;-45
2022/09/27 01:50:43;;;;;;;2.90;2.70;;;10.90;99.90;;;;;;5092362;27;20212;-48
2022/09/27 01:53:15;;;;;;;3.03;2.70;;;10.90;99.90;;;;;;5099503;28;20239;-45
2022/09/27 01:56:05;;;;;;;3.10;2.80;;;10.90;99.90;;;;;;5098914;28;20216;-44
2022/09/27 01:58:52;;;;;;;3.50;3.20;;;10.90;99.90;;;;;;5100511;28;20212;-46
2022/09/27 02:01:21;;;;;;;3.50;3.20;;;10.90;99.90;;;;;;5103839;28;20213;-45
2022/09/27 02:03:56;;;;;;;3.13;2.93;;;10.90;99.90;;;;;;5099012;28;20196;-48
2022/09/27 02:06:49;;;;;;;3.43;3.20;;;10.90;99.90;;;;;;5090217;27;20221;-45
2022/09/27 02:09:25;;;;;;;3.83;3.53;;;10.90;99.90;;;;;;5102618;28;20189;-48
2022/09/27 02:12:09;;;;;;;4.03;3.20;;;11.00;99.90;;;;;;5101174;28;20189;-46
2022/09/27 02:14:41;;;;;;;3.10;2.90;;;11.00;99.90;;;;;;5101564;28;20232;-44
2022/09/27 02:17:18;;;;;;;4.10;3.13;;;10.90;99.90;;;;;;5105551;27;20208;-45
2022/09/27 02:19:54;;;;;;;4.37;3.50;;;11.00;99.90;;;;;;5107202;27;20195;-43
2022/09/27 02:22:33;;;;;;;3.47;3.13;;;10.90;99.90;;;;;;5098142;28;20208;-45
2022/09/27 02:25:06;;;;;;;4.67;3.70;;;11.00;99.90;;;;;;5098932;28;20182;-47
2022/09/27 02:27:38;;;;;;;4.43;3.57;;;10.90;99.90;;;;;;5102570;28;20209;-43
2022/09/27 02:30:12;;;;;;;3.83;3.53;;;11.00;99.90;;;;;;5100189;28;20192;-43
2022/09/27 02:32:41;;;;;;;5.73;3.77;;;10.90;99.90;;;;;;5101745;28;20221;-43
2022/09/27 02:35:15;;;;;;;3.10;2.90;;;10.90;99.90;;;;;;5098936;28;20209;-44
2022/09/27 02:37:42;;;;;;;4.20;3.90;;;11.00;99.90;;;;;;5088758;28;20221;-44
2022/09/27 02:40:10;;;;;;;4.07;3.67;;;11.00;99.90;;;;;;5101412;28;20874;-44
2022/09/27 02:42:38;;;;;;;3.90;3.60;;;10.90;99.90;;;;;;5102394;28;20199;-45
2022/09/27 02:45:06;;;;;;;3.83;3.53;;;11.00;99.90;;;;;;5099743;28;20792;-44
2022/09/27 02:47:49;;;;;;;4.17;3.87;;;10.90;99.90;;;;;;5102675;28;20235;-46
2022/09/27 02:50:31;;;;;;;4.23;3.83;;;10.90;99.90;;;;;;5106886;27;20189;-47
2022/09/27 02:53:28;;;;;;;4.10;3.73;;;10.90;99.90;;;;;;5099192;28;20338;-44
2022/09/27 02:56:06;;;;;;;3.93;3.70;;;10.90;99.90;;;;;;5100235;28;20831;-46
2022/09/27 02:59:04;;;;;;;3.67;3.40;;;10.90;99.90;;;;;;5096441;28;20197;-44
2022/09/27 03:02:03;;;;;;;3.90;3.60;;;10.90;99.90;;;;;;5103270;28;20193;-43
2022/09/27 03:04:41;;;;;;;3.57;3.27;;;10.90;99.90;;;;;;5105158;28;20754;-47
2022/09/27 03:07:10;;;;;;;4.57;4.17;;;10.90;99.90;;;;;;5089726;27;20253;-43
2022/09/27 03:09:44;;;;;;;4.00;3.70;;;10.90;99.90;;;;;;5103232;28;20250;-45
2022/09/27 03:12:11;;;;;;;4.27;3.97;;;10.90;99.90;;;;;;5104242;28;20185;-43
2022/09/27 03:14:38;;;;;;;3.90;3.60;;;10.90;99.90;;;;;;5104821;28;20231;-43
2022/09/27 03:17:26;;;;;;;4.10;3.77;;;10.90;99.90;;;;;;5093009;27;20228;-43
2022/09/27 03:20:19;;;;;;;3.70;3.50;;;10.90;99.90;;;;;;5116404;27;20196;-45
2022/09/27 03:22:53;;;;;;;4.20;3.90;;;10.90;99.90;;;;;;5099078;27;20280;-47
2022/09/27 03:25:20;;;;;;;4.03;3.80;;;10.90;99.90;;;;;;5099321;28;20201;-44
2022/09/27 03:27:48;;;;;;;4.13;3.83;;;10.90;99.90;;;;;;5104362;28;20213;-47
2022/09/27 03:30:15;;;;;;;3.77;3.47;;;10.90;99.90;;;;;;5104818;28;20820;-46
2022/09/27 03:32:43;;;;;;;4.43;4.03;;;10.90;99.90;;;;;;5104516;28;20266;-43
2022/09/27 03:35:28;;;;;;;4.37;3.97;;;10.90;99.90;;;;;;5105848;28;20224;-43
2022/09/27 03:37:57;;;;;;;6.30;4.43;;;10.90;99.90;;;;;;5090241;27;20286;-48
2022/09/27 03:40:24;;;;;;;4.50;4.20;;;10.90;99.90;;;;;;5102345;28;20189;-45
2022/09/27 03:42:51;;;;;;;5.00;4.60;;;10.90;99.90;;;;;;5102376;28;20221;-45
2022/09/27 03:45:18;;;;;;;4.50;4.10;;;10.90;99.90;;;;;;5105356;28;20185;-47
2022/09/27 03:47:46;;;;;;;4.00;3.70;;;10.90;99.90;;;;;;5113197;27;20262;-44
2022/09/27 03:50:14;;;;;;;4.67;4.07;;;10.90;99.90;;;;;;5118212;27;20968;-43
2022/09/27 03:52:42;;;;;;;4.20;3.90;;;10.90;99.90;;;;;;5124479;27;20245;-46
2022/09/27 03:55:11;;;;;;;4.63;4.23;;;10.90;99.90;;;;;;5092682;27;20361;-43
2022/09/27 03:57:38;;;;;;;4.40;4.10;;;10.90;99.90;;;;;;5106009;28;20224;-43
2022/09/27 04:00:07;;;;;;;4.10;3.67;;;10.90;99.90;;;;;;5102033;28;20972;-45
2022/09/27 04:02:40;;;;;;;4.10;3.80;;;10.90;99.90;;;;;;5091059;27;21072;-43
2022/09/27 04:05:23;;;;;;;4.80;3.80;;;10.90;99.90;;;;;;5098760;28;20777;-44
2022/09/27 04:07:52;;;;;;;4.67;4.20;;;10.90;99.90;;;;;;5116994;27;20282;-45
2022/09/27 04:10:21;;;;;;;4.00;3.70;;;10.90;99.90;;;;;;5088130;27;20220;-45
2022/09/27 04:12:49;;;;;;;4.30;3.90;;;10.90;99.90;;;;;;5104936;27;20696;-45
2022/09/27 04:15:16;;;;;;;4.57;4.27;;;10.90;99.90;;;;;;5131507;27;20308;-47
2022/09/27 04:17:49;;;;;;;5.17;4.43;;;10.90;99.90;;;;;;5106345;28;20240;-48
2022/09/27 04:20:35;;;;;;;5.07;4.50;;;10.90;99.90;;;;;;5102837;28;20752;-49
2022/09/27 04:23:13;;;;;;;3.93;3.63;;;10.90;99.90;;;;;;5093776;27;20217;-44
2022/09/27 04:25:47;;;;;;;6.10;4.83;;;11.00;99.90;;;;;;5111457;27;20209;-46
2022/09/27 04:28:20;;;;;;;4.63;4.30;;;11.00;99.90;;;;;;5121087;27;20249;-44
2022/09/27 04:30:47;;;;;;;4.03;3.70;;;10.90;99.90;;;;;;5118597;27;20193;-49
2022/09/27 04:33:34;;;;;;;4.83;4.40;;;10.90;99.90;;;;;;5122216;27;20195;-45
2022/09/27 04:36:25;;;;;;;4.80;4.47;;;10.90;99.90;;;;;;5102593;27;20232;-47
2022/09/27 04:39:09;;;;;;;4.33;4.03;;;11.00;99.90;;;;;;5107498;27;20669;-43
2022/09/27 04:41:40;;;;;;;5.00;4.43;;;11.00;99.90;;;;;;5083052;27;21331;-45
2022/09/27 04:44:06;;;;;;;4.07;3.77;;;11.00;99.90;;;;;;5116660;27;20193;-46
2022/09/27 04:46:34;;;;;;;4.00;3.60;;;11.00;99.90;;;;;;5098405;27;20583;-44
2022/09/27 04:49:01;;;;;;;4.07;3.77;;;11.00;99.90;;;;;;5103828;28;20220;-49
2022/09/27 04:51:30;;;;;;;3.83;3.53;;;11.00;99.90;;;;;;5116841;27;20195;-44
2022/09/27 04:53:57;;;;;;;4.03;3.57;;;11.00;99.90;;;;;;5105412;27;20201;-47
2022/09/27 04:56:33;;;;;;;3.67;3.37;;;11.00;99.90;;;;;;5090251;28;20654;-44
2022/09/27 04:59:03;;;;;;;3.47;3.13;;;11.00;99.90;;;;;;5091709;27;20209;-45
2022/09/27 05:01:30;;;;;;;3.73;3.47;;;11.00;99.90;;;;;;5102399;27;20323;-48
2022/09/27 05:04:12;;;;;;;3.70;3.40;;;11.00;99.90;;;;;;5107913;27;20197;-46
2022/09/27 05:06:43;;;;;;;4.33;3.30;;;11.00;99.90;;;;;;5103393;27;20576;-43
2022/09/27 05:09:18;;;;;;;3.43;3.20;;;11.00;99.90;;;;;;5095182;27;20204;-44
2022/09/27 05:11:54;;;;;;;3.70;3.40;;;11.00;99.90;;;;;;5105134;27;20272;-49
2022/09/27 05:14:41;;;;;;;3.13;2.90;;;11.00;99.90;;;;;;5096907;28;20217;-46
2022/09/27 05:17:28;;;;;;;3.80;3.00;;;11.00;99.90;;;;;;5090085;27;20218;-47
2022/09/27 05:20:15;;;;;;;7.37;4.60;;;11.00;99.90;;;;;;5112261;27;20202;-44
2022/09/27 05:22:50;;;;;;;4.03;3.63;;;11.00;99.90;;;;;;5106341;27;20284;-48
2022/09/27 05:25:18;;;;;;;5.80;3.80;;;11.00;99.90;;;;;;5118419;27;20222;-45
2022/09/27 05:27:45;;;;;;;4.70;3.67;;;11.00;99.90;;;;;;5081342;27;20225;-44
2022/09/27 05:30:14;;;;;;;4.33;3.73;;;11.00;99.90;;;;;;5100905;27;20193;-46
2022/09/27 05:32:48;;;;;;;8.37;5.30;;;11.00;99.90;;;;;;5112777;27;20276;-47
2022/09/27 05:35:46;;;;;;;5.80;5.00;;;11.00;99.90;;;;;;5102643;28;20217;-44
2022/09/27 05:38:13;;;;;;;4.83;4.33;;;11.00;99.90;;;;;;5103781;27;20211;-44
2022/09/27 05:40:45;;;;;;;4.93;3.90;;;11.10;99.90;;;;;;5102736;28;20198;-47
2022/09/27 05:43:14;;;;;;;4.53;3.97;;;11.00;99.90;;;;;;5093136;28;20685;-43
2022/09/27 05:45:43;;;;;;;5.30;4.80;;;11.10;99.90;;;;;;5101652;27;20292;-48
2022/09/27 05:48:13;;;;;;;5.80;4.87;;;11.10;99.90;;;;;;5104570;27;20203;-43
2022/09/27 05:50:48;;;;;;;5.93;5.27;;;11.10;99.90;;;;;;5120144;27;20266;-44
2022/09/27 05:53:16;;;;;;;10.87;7.13;;;11.10;99.90;;;;;;5108106;27;20235;-44
2022/09/27 05:55:43;;;;;;;7.40;5.77;;;11.10;99.90;;;;;;5111258;27;20241;-46
2022/09/27 05:58:14;;;;;;;6.80;5.60;;;11.10;99.90;;;;;;5093117;27;20227;-44
2022/09/27 06:00:47;;;;;;;5.73;5.13;;;11.10;99.90;;;;;;5094164;27;20693;-44
2022/09/27 06:03:45;;;;;;;5.20;4.70;;;11.10;99.90;;;;;;5100737;28;20542;-43
2022/09/27 06:06:35;;;;;;;5.87;5.30;;;11.10;99.90;;;;;;5099028;28;20425;-45
2022/09/27 06:09:02;;;;;;;8.30;5.60;;;11.10;99.90;;;;;;5091767;28;20193;-45
2022/09/27 06:11:29;;;;;;;7.57;5.87;;;11.10;99.90;;;;;;5100908;28;20281;-46
2022/09/27 06:13:57;;;;;;;12.50;7.63;;;11.10;99.90;;;;;;5100909;28;20251;-46
2022/09/27 06:16:26;;;;;;;7.50;6.73;;;11.10;99.90;;;;;;5086696;27;20354;-47
2022/09/27 06:18:53;;;;;;;8.13;6.70;;;11.10;99.90;;;;;;5110778;27;20221;-45
2022/09/27 06:21:21;;;;;;;7.33;6.00;;;11.10;99.90;;;;;;5098313;28;20260;-44
2022/09/27 06:23:55;;;;;;;8.43;7.00;;;11.20;99.90;;;;;;5101367;28;20193;-45
2022/09/27 06:26:28;;;;;;;9.80;7.40;;;11.20;99.90;;;;;;5095744;28;20223;-47
2022/09/27 06:29:06;;;;;;;13.97;8.30;;;11.20;99.90;;;;;;5088906;28;20220;-44
2022/09/27 06:31:36;;;;;;;12.10;8.03;;;11.20;99.90;;;;;;5111680;27;20212;-44
2022/09/27 06:34:23;;;;;;;13.53;7.60;;;11.20;99.90;;;;;;5106229;27;20237;-49
2022/09/27 06:36:50;;;;;;;9.57;7.33;;;11.20;99.90;;;;;;5101813;28;20225;-43
2022/09/27 06:39:17;;;;;;;11.90;7.73;;;11.20;99.90;;;;;;5096764;28;20680;-44
2022/09/27 06:42:02;;;;;;;6.30;5.70;;;11.20;99.90;;;;;;5099089;28;20284;-43
2022/09/27 06:44:48;;;;;;;5.67;5.00;;;11.20;99.90;;;;;;5102731;28;20692;-47
2022/09/27 06:47:37;;;;;;;6.83;5.53;;;11.10;99.90;;;;;;5103949;27;20968;-44
2022/09/27 06:50:23;;;;;;;6.93;4.37;;;11.10;99.90;;;;;;5093250;28;20936;-43
2022/09/27 06:52:50;;;;;;;5.17;4.67;;;11.10;99.90;;;;;;5100960;28;20189;-46
2022/09/27 06:55:18;;;;;;;5.97;4.60;;;11.10;99.90;;;;;;5098052;28;20312;-45
2022/09/27 07:00:29;;;;;;;7.90;4.90;;;11.10;99.90;;;;;;5086897;28;20216;-47
2022/09/27 07:03:16;;;;;;;7.03;4.90;;;11.10;99.90;;;;;;5088477;28;20852;-44
2022/09/27 07:06:17;;;;;;;7.73;4.50;;;11.10;99.90;;;;;;5099518;28;20219;-45
2022/09/27 07:08:51;;;;;;;5.07;3.90;;;11.10;99.90;;;;;;5098328;28;20193;-47
2022/09/27 07:11:19;;;;;;;3.93;3.33;;;11.10;99.90;;;;;;5098427;28;20280;-46
2022/09/27 07:13:45;;;;;;;4.90;2.87;;;11.10;99.90;;;;;;5102329;28;20586;-46
2022/09/27 07:16:13;;;;;;;3.33;2.23;;;11.10;99.90;;;;;;5085997;28;20213;-43
2022/09/27 07:18:42;;;;;;;2.67;1.70;;;11.10;99.90;;;;;;5096481;28;20209;-48
2022/09/27 07:21:11;;;;;;;3.83;1.60;;;11.10;99.90;;;;;;5099927;28;20658;-44
2022/09/27 07:23:38;;;;;;;2.83;1.40;;;11.10;99.90;;;;;;5094933;28;20229;-44
2022/09/27 07:26:09;;;;;;;3.47;1.70;;;11.10;99.90;;;;;;5101669;28;20205;-43
2022/09/27 07:28:38;;;;;;;2.60;1.53;;;11.10;99.90;;;;;;5099511;28;21656;-44
2022/09/27 07:31:05;;;;;;;3.93;2.00;;;11.10;99.90;;;;;;5097731;28;20194;-46
2022/09/27 07:33:32;;;;;;;4.67;2.30;;;11.10;99.90;;;;;;5110604;28;20289;-46
2022/09/27 07:36:06;;;;;;;4.57;1.70;;;11.10;99.90;;;;;;5092845;28;20236;-43
2022/09/27 07:38:33;;;;;;;3.30;1.77;;;11.20;99.90;;;;;;5086409;28;20275;-44
2022/09/27 07:41:05;;;;;;;2.13;1.43;;;11.10;99.90;;;;;;5101504;28;20276;-46
2022/09/27 07:43:32;;;;;;;4.77;1.83;;;11.20;99.90;;;;;;5100913;28;20276;-46
2022/09/27 07:45:59;;;;;;;4.73;1.70;;;11.10;99.90;;;;;;5102645;28;20209;-43
2022/09/27 07:48:44;;;;;;;1.80;1.70;;;11.20;99.90;;;;;;5091777;27;20240;-43
2022/09/27 07:51:26;;;;;;;3.67;1.60;;;11.20;99.90;;;;;;5096685;27;20812;-43
2022/09/27 07:54:00;;;;;;;3.43;1.50;;;11.20;99.90;;;;;;5104123;28;20193;-48
2022/09/27 07:56:46;;;;;;;5.07;2.07;;;11.20;99.90;;;;;;5093556;27;20232;-44
2022/09/27 07:59:15;;;;;;;2.83;1.30;;;11.30;99.90;;;;;;5101800;28;20251;-46
2022/09/27 08:01:45;;;;;;;1.43;1.23;;;11.20;99.90;;;;;;5100878;27;20669;-51
2022/09/27 08:04:12;;;;;;;3.77;1.40;;;11.20;99.90;;;;;;5089576;27;20562;-44
2022/09/27 08:06:40;;;;;;;3.00;1.23;;;11.30;99.90;;;;;;5100744;28;20311;-43
2022/09/27 08:09:08;;;;;;;2.20;1.07;;;11.20;99.90;;;;;;5103252;28;20210;-45
2022/09/27 08:11:36;;;;;;;1.20;0.90;;;11.20;99.90;;;;;;5103348;28;20200;-44
2022/09/27 08:14:04;;;;;;;2.60;1.10;;;11.30;99.90;;;;;;5103462;28;20197;-48
2022/09/27 08:16:33;;;;;;;1.33;0.90;;;11.30;99.90;;;;;;5102177;28;20290;-45
2022/09/27 08:19:19;;;;;;;1.60;0.90;;;11.30;99.90;;;;;;5082940;27;20599;-46
2022/09/27 08:22:11;;;;;;;2.87;0.80;;;11.30;99.90;;;;;;5095528;28;20207;-43
2022/09/27 08:24:58;;;;;;;2.50;1.03;;;11.40;99.90;;;;;;5099580;27;20729;-46
2022/09/27 08:27:54;;;;;;;2.37;1.17;;;11.40;99.90;;;;;;5100794;28;20213;-48
2022/09/27 08:30:33;;;;;;;2.40;1.10;;;11.50;99.90;;;;;;5098422;28;20594;-45
2022/09/27 08:33:02;;;;;;;2.30;1.23;;;11.50;99.90;;;;;;5083811;28;20248;-46
2022/09/27 08:35:30;;;;;;;1.97;1.27;;;11.40;99.90;;;;;;5072428;27;20216;-46
2022/09/27 08:38:00;;;;;;;0.90;0.70;;;11.40;99.90;;;;;;5105596;28;20220;-44
2022/09/27 08:40:37;;;;;;;1.33;0.90;;;11.40;99.90;;;;;;5091010;28;20200;-44
2022/09/27 08:43:15;;;;;;;1.07;0.83;;;11.40;99.90;;;;;;5095208;28;20189;-44
2022/09/27 08:45:55;;;;;;;4.43;1.43;;;11.40;99.90;;;;;;5096500;27;20197;-45
2022/09/27 08:48:25;;;;;;;4.47;0.97;;;11.40;99.90;;;;;;5101200;28;20851;-44
2022/09/27 08:50:52;;;;;;;1.67;0.60;;;11.40;99.90;;;;;;5104247;27;20205;-46
2022/09/27 08:53:26;;;;;;;1.30;0.50;;;11.30;99.90;;;;;;5093689;27;20227;-47
2022/09/27 08:55:56;;;;;;;1.10;0.60;;;11.30;99.90;;;;;;5096199;28;20309;-45
2022/09/27 08:58:29;;;;;;;1.27;0.47;;;11.20;99.90;;;;;;5096145;28;20207;-45
2022/09/27 09:01:01;;;;;;;1.97;0.70;;;11.20;99.90;;;;;;5124520;27;20261;-44
2022/09/27 09:03:35;;;;;;;1.90;0.60;;;11.20;99.90;;;;;;5121136;27;20371;-43
2022/09/27 09:06:13;;;;;;;1.43;0.50;;;11.20;99.90;;;;;;5108002;27;20210;-45
2022/09/27 09:08:59;;;;;;;1.27;0.80;;;11.20;99.90;;;;;;5097318;27;20309;-45
2022/09/27 09:14:42;;;;;;;1.97;0.50;;;11.20;99.90;;;;;;5096521;28;20936;-46
2022/09/27 09:17:20;;;;;;;2.00;0.80;;;11.20;99.90;;;;;;5106723;27;20588;-45
2022/09/27 09:20:19;;;;;;;1.80;0.50;;;11.30;99.90;;;;;;5115675;27;20231;-44
2022/09/27 09:23:30;;;;;;;3.17;0.90;;;11.30;99.90;;;;;;5103887;27;20262;-45
2022/09/27 09:26:05;;;;;;;0.93;0.77;;;11.20;99.90;;;;;;5116158;27;20280;-44
2022/09/27 09:28:47;;;;;;;2.57;1.00;;;11.20;99.90;;;;;;5094829;28;20399;-43
2022/09/27 09:31:24;;;;;;;1.80;0.70;;;11.30;99.90;;;;;;5093978;28;20742;-43
2022/09/27 09:34:19;;;;;;;1.03;0.87;;;11.20;99.90;;;;;;5101088;28;20204;-44
2022/09/27 09:36:52;;;;;;;1.40;0.83;;;11.20;99.90;;;;;;5100533;28;20228;-45
2022/09/27 09:39:24;;;;;;;8.67;2.57;;;11.30;99.90;;;;;;5087252;27;20733;-44
2022/09/27 09:42:06;;;;;;;1.77;1.27;;;11.20;99.90;;;;;;5103104;28;20547;-43
2022/09/27 09:44:40;;;;;;;2.10;1.20;;;11.20;99.90;;;;;;5095825;28;20765;-46
2022/09/27 09:47:15;;;;;;;1.63;1.13;;;11.20;99.90;;;;;;5102613;27;20602;-46
2022/09/27 09:49:46;;;;;;;1.90;0.97;;;11.10;99.90;;;;;;5103602;27;20205;-43
2022/09/27 09:52:18;;;;;;;0.50;0.50;;;11.10;99.90;;;;;;5099933;28;20197;-44
2022/09/27 09:54:49;;;;;;;1.13;0.97;;;11.10;99.90;;;;;;5087281;27;20197;-45
2022/09/27 09:57:22;;;;;;;1.73;1.20;;;11.10;99.90;;;;;;5100857;28;20266;-46
2022/09/27 09:59:57;;;;;;;1.27;1.17;;;11.10;99.90;;;;;;5097395;28;20197;-46
2022/09/27 10:02:31;;;;;;;1.20;1.10;;;11.10;99.90;;;;;;5098905;28;20265;-46
2022/09/27 10:05:05;;;;;;;1.00;1.00;;;11.10;99.90;;;;;;5100379;28;20250;-44
2022/09/27 10:07:33;;;;;;;4.20;1.40;;;11.10;99.90;;;;;;5089878;28;20524;-44
2022/09/27 10:10:04;;;;;;;1.90;1.20;;;11.10;99.90;;;;;;5093954;27;20220;-44
2022/09/27 10:12:51;;;;;;;1.43;1.27;;;11.10;99.90;;;;;;5102786;28;20207;-43
2022/09/27 10:15:23;;;;;;;1.53;1.20;;;11.10;99.90;;;;;;5093556;28;20201;-44
2022/09/27 10:17:52;;;;;;;2.10;1.60;;;11.10;99.90;;;;;;5102253;27;20221;-45
2022/09/27 10:20:32;;;;;;;1.50;1.40;;;11.10;99.90;;;;;;5114646;27;20214;-46
2022/09/27 10:23:06;;;;;;;2.03;1.20;;;11.10;99.90;;;;;;5122854;27;20200;-43
2022/09/27 10:25:51;;;;;;;1.40;1.30;;;11.10;99.90;;;;;;5095249;27;20205;-42
2022/09/27 10:28:37;;;;;;;4.27;1.60;;;11.00;99.90;;;;;;5097872;28;20848;-42
2022/09/27 10:31:05;;;;;;;2.50;1.40;;;11.00;99.90;;;;;;5101648;28;20292;-47
2022/09/27 10:33:42;;;;;;;1.43;1.10;;;11.00;99.90;;;;;;5097908;28;20303;-42
2022/09/27 10:36:25;;;;;;;2.43;1.50;;;11.00;99.90;;;;;;5098327;28;20209;-44
2022/09/27 10:38:53;;;;;;;1.40;1.30;;;11.00;99.90;;;;;;5094957;28;20284;-44
2022/09/27 10:41:36;;;;;;;1.17;1.07;;;11.00;99.90;;;;;;5086318;28;20954;-43
2022/09/27 10:44:25;;;;;;;4.07;1.30;;;11.00;99.90;;;;;;5105753;28;20200;-42
2022/09/27 10:47:07;;;;;;;1.20;1.10;;;11.00;99.90;;;;;;5116972;27;20216;-44
2022/09/27 10:50:17;;;;;;;1.00;0.90;;;10.90;99.90;;;;;;5090505;28;20197;-45
2022/09/27 10:53:05;;;;;;;1.23;1.10;;;10.90;99.90;;;;;;5097985;28;20209;-43
2022/09/27 10:55:34;;;;;;;1.67;1.00;;;10.90;99.90;;;;;;5095687;28;20919;-45
2022/09/27 10:58:02;;;;;;;1.00;1.00;;;10.90;99.90;;;;;;5101466;27;20213;-43
2022/09/27 11:00:33;;;;;;;1.23;1.10;;;11.00;99.90;;;;;;5092271;28;20431;-43
2022/09/27 11:03:03;;;;;;;1.10;1.10;;;11.00;99.90;;;;;;5102854;28;20209;-45
2022/09/27 11:05:35;;;;;;;0.70;0.70;;;11.00;99.90;;;;;;5096741;28;20567;-43
2022/09/27 11:08:22;;;;;;;1.00;0.80;;;11.10;99.90;;;;;;5096025;28;20196;-45
2022/09/27 11:11:03;;;;;;;2.97;1.00;;;11.20;99.90;;;;;;5102409;28;20197;-44
2022/09/27 11:13:31;;;;;;;1.07;0.93;;;11.30;99.90;;;;;;5086310;28;20206;-47
2022/09/27 11:16:37;;;;;;;0.80;0.80;;;11.40;99.90;;;;;;5105694;27;20266;-47
2022/09/27 11:19:22;;;;;;;1.03;0.90;;;11.50;99.90;;;;;;5067603;28;20201;-49
2022/09/27 11:21:56;;;;;;;0.93;0.90;;;11.60;99.90;;;;;;5114434;27;20598;-43
2022/09/27 11:24:36;;;;;;;1.40;1.30;;;11.70;99.90;;;;;;5122738;27;20184;-43
2022/09/27 11:27:17;;;;;;;0.80;0.80;;;11.70;99.90;;;;;;5098025;27;20208;-46
2022/09/27 11:30:02;;;;;;;0.50;0.50;;;11.80;99.90;;;;;;5115011;27;20557;-43
2022/09/27 11:32:43;;;;;;;0.60;0.60;;;11.80;99.90;;;;;;5111318;27;20221;-45
2022/09/27 11:35:33;;;;;;;0.80;0.77;;;11.80;99.90;;;;;;5102859;28;20197;-47
2022/09/27 11:38:16;;;;;;;0.60;0.50;;;11.70;99.90;;;;;;5096930;27;20213;-46
2022/09/27 11:41:02;;;;;;;2.13;0.50;;;11.70;99.90;;;;;;5105137;28;20209;-45
2022/09/27 11:43:42;;;;;;;0.53;0.40;;;11.70;99.90;;;;;;5089099;27;21309;-44
2022/09/27 11:46:20;;;;;;;0.73;0.40;;;11.70;99.90;;;;;;5115682;27;20216;-44
2022/09/27 11:49:03;;;;;;;0.60;0.43;;;11.70;99.90;;;;;;5115515;27;20189;-43
2022/09/27 11:51:53;;;;;;;0.90;0.40;;;11.90;99.90;;;;;;5123152;27;20207;-48
2022/09/27 11:54:36;;;;;;;0.97;0.70;;;12.00;99.90;;;;;;5104669;27;20201;-46
2022/09/27 11:57:09;;;;;;;0.50;0.50;;;11.90;99.90;;;;;;5098519;28;20236;-44
2022/09/27 12:00:09;;;;;;;1.00;0.80;;;12.00;99.90;;;;;;5096310;27;20264;-43
2022/09/27 12:03:03;;;;;;;1.77;0.80;;;12.10;99.90;;;;;;5101066;28;20228;-44
2022/09/27 12:05:38;;;;;;;0.77;0.60;;;12.10;99.90;;;;;;5092730;27;20282;-47
2022/09/27 12:08:32;;;;;;;0.80;0.80;;;12.00;99.90;;;;;;5095596;28;20598;-43
2022/09/27 12:11:09;;;;;;;0.90;0.70;;;12.00;99.90;;;;;;5104785;28;20280;-45
2022/09/27 12:13:41;;;;;;;1.73;0.50;;;12.10;99.90;;;;;;5099882;28;20204;-43
2022/09/27 12:16:10;;;;;;;0.70;0.60;;;12.10;99.90;;;;;;5087384;27;20312;-45
2022/09/27 12:18:40;;;;;;;0.67;0.60;;;12.20;99.90;;;;;;5097747;27;20938;-45
2022/09/27 12:21:26;;;;;;;0.60;0.60;;;12.30;99.90;;;;;;5120835;27;20737;-43
2022/09/27 12:23:56;;;;;;;0.70;0.70;;;12.30;99.90;;;;;;5124399;27;20234;-43
2022/09/27 12:26:44;;;;;;;0.60;0.60;;;12.30;99.90;;;;;;5097126;27;20225;-46
2022/09/27 12:29:21;;;;;;;0.60;0.60;;;12.40;99.90;;;;;;5089644;27;20843;-45
2022/09/27 12:31:57;;;;;;;0.80;0.70;;;12.40;99.90;;;;;;5104370;28;20185;-43
2022/09/27 12:34:32;;;;;;;1.53;0.80;;;12.40;99.90;;;;;;5099656;28;20188;-44
2022/09/27 12:37:05;;;;;;;2.30;0.90;;;12.50;99.90;;;;;;5095904;27;20220;-43
2022/09/27 12:39:43;;;;;;;3.07;1.00;;;12.50;99.90;;;;;;5096370;28;20190;-45
2022/09/27 12:42:23;;;;;;;1.07;0.70;;;12.50;99.90;;;;;;5095293;28;20201;-45
2022/09/27 12:44:57;;;;;;;0.90;0.87;;;12.60;99.90;;;;;;5090381;27;20212;-43
2022/09/27 12:47:43;;;;;;;0.50;0.50;;;12.60;99.90;;;;;;5100040;28;20213;-44
2022/09/27 12:50:23;;;;;;;1.53;0.50;;;12.70;99.90;;;;;;5108758;27;20193;-47
2022/09/27 12:52:55;;;;;;;0.77;0.73;;;12.60;99.90;;;;;;5124450;27;20196;-45
2022/09/27 12:55:53;;;;;;;0.83;0.70;;;12.60;99.90;;;;;;5119594;27;20199;-44
2022/09/27 12:58:39;;;;;;;1.00;0.57;;;12.70;99.90;;;;;;5101474;27;20241;-43
2022/09/27 13:01:19;;;;;;;2.07;0.70;;;12.60;99.90;;;;;;5080461;27;20205;-43
2022/09/27 13:04:09;;;;;;;1.57;0.97;;;12.60;99.90;;;;;;5114037;27;20205;-45
2022/09/27 13:07:03;;;;;;;1.33;0.70;;;12.60;99.90;;;;;;5097162;28;20834;-45
2022/09/27 13:09:59;;;;;;;1.47;0.70;;;12.50;99.90;;;;;;5109107;27;20196;-44
2022/09/27 13:12:28;;;;;;;1.23;0.67;;;12.50;99.90;;;;;;5120751;27;20199;-48
2022/09/27 13:15:00;;;;;;;1.07;0.60;;;12.50;99.90;;;;;;5119730;27;20195;-43
2022/09/27 13:17:50;;;;;;;1.40;0.50;;;12.40;99.90;;;;;;5088857;27;20582;-47
2022/09/27 13:20:45;;;;;;;2.07;0.50;;;12.40;99.90;;;;;;5099833;28;20284;-46
2022/09/27 13:23:58;;;;;;;2.60;0.80;;;12.40;99.90;;;;;;5097231;27;20185;-43
2022/09/27 13:26:49;;;;;;;1.13;0.60;;;12.40;99.90;;;;;;5097240;28;20217;-46
2022/09/27 13:29:33;;;;;;;0.37;0.37;;;12.40;99.90;;;;;;5083004;27;20229;-47
2022/09/27 13:32:23;;;;;;;2.23;0.67;;;12.40;99.90;;;;;;5074083;27;20205;-46
2022/09/27 13:35:21;;;;;;;0.50;0.50;;;12.40;99.90;;;;;;5091696;27;20725;-45
2022/09/27 13:37:58;;;;;;;0.97;0.60;;;12.40;99.90;;;;;;5094022;27;20221;-47